sensor_id;sensor_type;location;lat;lon;timestamp;pressure;altitude;pressure_sealevel;temperature;humidity
49459;BME280;35354;51.296;16.924;2023-05-02T00:00:27;99343.28;;;13.99;71.00
49459;BME280;35354;51.296;16.924;2023-05-02T00:02:53;99334.38;;;14.02;70.99
49459;BME280;35354;51.296;16.924;2023-05-02T00:05:18;99286.34;;;13.76;70.73
49459;BME280;35354;51.296;16.924;2023-05-02T00:07:44;99327.16;;;14.05;70.87
49459;BME280;35354;51.296;16.924;2023-05-02T00:10:09;99324.53;;;14.05;70.76
49459;BME280;35354;51.296;16.924;2023-05-02T00:12:35;99323.19;;;14.00;70.75
49459;BME280;35354;51.296;16.924;2023-05-02T00:15:00;99325.56;;;14.03;70.99
49459;BME280;35354;51.296;16.924;2023-05-02T00:17:25;99313.63;;;13.98;70.83
49459;BME280;35354;51.296;16.924;2023-05-02T00:19:51;99316.66;;;13.92;71.40
49459;BME280;35354;51.296;16.924;2023-05-02T00:22:16;99311.72;;;13.88;71.26
49459;BME280;35354;51.296;16.924;2023-05-02T00:24:41;99292.72;;;13.71;71.40
49459;BME280;35354;51.296;16.924;2023-05-02T00:27:07;99316.50;;;13.81;71.61
49459;BME280;35354;51.296;16.924;2023-05-02T00:29:32;99306.53;;;13.73;71.69
49459;BME280;35354;51.296;16.924;2023-05-02T00:31:57;99303.59;;;13.65;72.11
49459;BME280;35354;51.296;16.924;2023-05-02T00:34:28;99310.22;;;13.71;72.35
49459;BME280;35354;51.296;16.924;2023-05-02T00:36:53;99304.31;;;13.67;72.23
49459;BME280;35354;51.296;16.924;2023-05-02T00:39:18;99258.47;;;13.35;72.39
49459;BME280;35354;51.296;16.924;2023-05-02T00:41:44;99303.03;;;13.60;72.56
49459;BME280;35354;51.296;16.924;2023-05-02T00:44:09;99267.25;;;13.34;72.61
49459;BME280;35354;51.296;16.924;2023-05-02T00:46:34;99306.72;;;13.58;72.75
49459;BME280;35354;51.296;16.924;2023-05-02T00:49:00;99293.09;;;13.53;72.55
49459;BME280;35354;51.296;16.924;2023-05-02T00:51:26;99254.06;;;13.35;72.50
49459;BME280;35354;51.296;16.924;2023-05-02T00:53:51;99293.41;;;13.61;72.78
49459;BME280;35354;51.296;16.924;2023-05-02T00:56:17;99305.47;;;13.63;72.94
49459;BME280;35354;51.296;16.924;2023-05-02T00:58:43;99293.50;;;13.59;72.67
49459;BME280;35354;51.296;16.924;2023-05-02T01:01:47;99307.91;;;13.66;72.64
49459;BME280;35354;51.296;16.924;2023-05-02T01:04:30;99303.31;;;13.70;72.47
49459;BME280;35354;51.296;16.924;2023-05-02T01:10:01;99313.34;;;13.76;72.54
49459;BME280;35354;51.296;16.924;2023-05-02T01:12:40;99310.44;;;13.81;72.51
49459;BME280;35354;51.296;16.924;2023-05-02T01:15:09;99301.09;;;13.77;72.30
49459;BME280;35354;51.296;16.924;2023-05-02T01:17:37;99294.81;;;13.66;72.44
49459;BME280;35354;51.296;16.924;2023-05-02T01:20:07;99297.47;;;13.79;72.42
49459;BME280;35354;51.296;16.924;2023-05-02T01:22:36;99310.88;;;13.87;72.64
49459;BME280;35354;51.296;16.924;2023-05-02T01:30:17;99305.50;;;13.76;72.96
49459;BME280;35354;51.296;16.924;2023-05-02T01:32:45;99316.44;;;13.83;72.60
49459;BME280;35354;51.296;16.924;2023-05-02T01:35:14;99316.31;;;13.84;72.55
49459;BME280;35354;51.296;16.924;2023-05-02T01:37:42;99322.91;;;13.90;72.65
49459;BME280;35354;51.296;16.924;2023-05-02T01:40:10;99303.66;;;13.78;72.68
49459;BME280;35354;51.296;16.924;2023-05-02T01:42:36;99316.78;;;13.91;72.46
49459;BME280;35354;51.296;16.924;2023-05-02T01:45:03;99289.63;;;13.79;72.27
49459;BME280;35354;51.296;16.924;2023-05-02T01:47:31;99325.03;;;13.97;72.45
49459;BME280;35354;51.296;16.924;2023-05-02T01:49:58;99316.00;;;13.89;72.60
49459;BME280;35354;51.296;16.924;2023-05-02T01:52:26;99308.16;;;13.89;72.46
49459;BME280;35354;51.296;16.924;2023-05-02T01:54:52;99306.88;;;13.82;72.74
49459;BME280;35354;51.296;16.924;2023-05-02T01:57:20;99314.22;;;13.89;72.66
49459;BME280;35354;51.296;16.924;2023-05-02T01:59:46;99318.94;;;13.84;72.94
49459;BME280;35354;51.296;16.924;2023-05-02T02:02:14;99302.06;;;13.76;73.04
49459;BME280;35354;51.296;16.924;2023-05-02T02:04:41;99310.03;;;13.74;73.16
49459;BME280;35354;51.296;16.924;2023-05-02T02:07:08;99308.13;;;13.76;73.10
49459;BME280;35354;51.296;16.924;2023-05-02T02:09:36;99275.91;;;13.48;73.11
49459;BME280;35354;51.296;16.924;2023-05-02T02:14:47;99322.53;;;13.69;73.62
49459;BME280;35354;51.296;16.924;2023-05-02T02:17:20;99313.13;;;13.66;74.19
49459;BME280;35354;51.296;16.924;2023-05-02T02:19:47;99332.16;;;13.68;74.34
49459;BME280;35354;51.296;16.924;2023-05-02T02:22:14;99329.84;;;13.64;74.24
49459;BME280;35354;51.296;16.924;2023-05-02T02:24:43;99326.41;;;13.63;74.66
49459;BME280;35354;51.296;16.924;2023-05-02T02:27:10;99311.97;;;13.43;74.47
49459;BME280;35354;51.296;16.924;2023-05-02T02:29:36;99328.78;;;13.54;74.46
49459;BME280;35354;51.296;16.924;2023-05-02T02:32:01;99325.41;;;13.52;74.77
49459;BME280;35354;51.296;16.924;2023-05-02T02:34:27;99340.38;;;13.50;74.40
49459;BME280;35354;51.296;16.924;2023-05-02T02:37:00;99348.94;;;13.52;74.46
49459;BME280;35354;51.296;16.924;2023-05-02T02:42:24;99345.06;;;13.44;74.48
49459;BME280;35354;51.296;16.924;2023-05-02T02:56:21;99348.59;;;13.43;74.33
49459;BME280;35354;51.296;16.924;2023-05-02T02:58:56;99338.44;;;13.39;74.42
49459;BME280;35354;51.296;16.924;2023-05-02T03:01:24;99315.47;;;13.30;74.42
49459;BME280;35354;51.296;16.924;2023-05-02T03:03:52;99334.88;;;13.40;74.18
49459;BME280;35354;51.296;16.924;2023-05-02T03:06:19;99347.47;;;13.47;74.21
49459;BME280;35354;51.296;16.924;2023-05-02T03:08:44;99364.47;;;13.55;74.38
49459;BME280;35354;51.296;16.924;2023-05-02T03:11:10;99372.97;;;13.58;73.99
49459;BME280;35354;51.296;16.924;2023-05-02T03:13:36;99355.53;;;13.44;74.18
49459;BME280;35354;51.296;16.924;2023-05-02T03:18:44;99378.28;;;13.57;74.37
49459;BME280;35354;51.296;16.924;2023-05-02T03:21:09;99372.91;;;13.45;74.49
49459;BME280;35354;51.296;16.924;2023-05-02T03:23:35;99370.66;;;13.39;74.43
49459;BME280;35354;51.296;16.924;2023-05-02T03:26:01;99372.13;;;13.43;74.40
49459;BME280;35354;51.296;16.924;2023-05-02T03:28:27;99391.88;;;13.49;74.22
49459;BME280;35354;51.296;16.924;2023-05-02T03:30:52;99385.97;;;13.45;74.34
49459;BME280;35354;51.296;16.924;2023-05-02T03:33:17;99397.09;;;13.49;74.15
49459;BME280;35354;51.296;16.924;2023-05-02T03:35:43;99400.91;;;13.43;74.19
49459;BME280;35354;51.296;16.924;2023-05-02T03:38:08;99414.28;;;13.53;73.86
49459;BME280;35354;51.296;16.924;2023-05-02T03:40:34;99395.50;;;13.46;73.59
49459;BME280;35354;51.296;16.924;2023-05-02T03:42:59;99408.94;;;13.55;73.62
49459;BME280;35354;51.296;16.924;2023-05-02T03:45:24;99397.28;;;13.46;73.68
49459;BME280;35354;51.296;16.924;2023-05-02T03:47:50;99406.44;;;13.53;73.74
49459;BME280;35354;51.296;16.924;2023-05-02T03:50:15;99413.34;;;13.54;73.49
49459;BME280;35354;51.296;16.924;2023-05-02T03:52:40;99404.66;;;13.54;73.46
49459;BME280;35354;51.296;16.924;2023-05-02T03:55:06;99407.28;;;13.54;73.77
49459;BME280;35354;51.296;16.924;2023-05-02T03:57:32;99395.50;;;13.46;73.58
49459;BME280;35354;51.296;16.924;2023-05-02T03:59:57;99412.50;;;13.54;74.33
49459;BME280;35354;51.296;16.924;2023-05-02T04:02:22;99425.47;;;13.55;74.50
49459;BME280;35354;51.296;16.924;2023-05-02T04:04:49;99434.81;;;13.59;75.09
49459;BME280;35354;51.296;16.924;2023-05-02T04:07:14;99436.59;;;13.59;75.22
49459;BME280;35354;51.296;16.924;2023-05-02T04:09:43;99429.88;;;13.55;75.53
49459;BME280;35354;51.296;16.924;2023-05-02T04:12:09;99412.44;;;13.41;76.36
49459;BME280;35354;51.296;16.924;2023-05-02T04:14:34;99431.09;;;13.49;76.49
49459;BME280;35354;51.296;16.924;2023-05-02T04:17:00;99384.84;;;13.21;76.44
49459;BME280;35354;51.296;16.924;2023-05-02T04:19:25;99450.53;;;13.59;76.83
49459;BME280;35354;51.296;16.924;2023-05-02T04:21:51;99449.50;;;13.62;77.03
49459;BME280;35354;51.296;16.924;2023-05-02T04:24:16;99440.63;;;13.50;77.11
49459;BME280;35354;51.296;16.924;2023-05-02T04:26:42;99452.41;;;13.57;77.44
49459;BME280;35354;51.296;16.924;2023-05-02T04:29:07;99461.56;;;13.50;78.17
49459;BME280;35354;51.296;16.924;2023-05-02T04:31:32;99462.13;;;13.55;78.17
49459;BME280;35354;51.296;16.924;2023-05-02T04:33:58;99462.59;;;13.47;78.61
49459;BME280;35354;51.296;16.924;2023-05-02T04:36:24;99475.19;;;13.55;79.49
49459;BME280;35354;51.296;16.924;2023-05-02T04:38:53;99472.59;;;13.55;79.71
49459;BME280;35354;51.296;16.924;2023-05-02T04:41:18;99468.66;;;13.48;79.96
49459;BME280;35354;51.296;16.924;2023-05-02T04:43:44;99484.72;;;13.56;80.17
49459;BME280;35354;51.296;16.924;2023-05-02T04:46:09;99484.00;;;13.54;81.30
49459;BME280;35354;51.296;16.924;2023-05-02T04:48:35;99483.03;;;13.55;81.81
49459;BME280;35354;51.296;16.924;2023-05-02T04:51:00;99502.31;;;13.54;81.72
49459;BME280;35354;51.296;16.924;2023-05-02T04:53:26;99484.34;;;13.48;82.09
49459;BME280;35354;51.296;16.924;2023-05-02T04:55:52;99482.50;;;13.50;82.63
49459;BME280;35354;51.296;16.924;2023-05-02T04:58:17;99481.00;;;13.46;82.24
49459;BME280;35354;51.296;16.924;2023-05-02T05:00:42;99498.75;;;13.55;82.43
49459;BME280;35354;51.296;16.924;2023-05-02T05:03:08;99496.31;;;13.52;82.63
49459;BME280;35354;51.296;16.924;2023-05-02T05:05:33;99509.03;;;13.58;82.81
49459;BME280;35354;51.296;16.924;2023-05-02T05:07:59;99507.25;;;13.59;82.84
49459;BME280;35354;51.296;16.924;2023-05-02T05:10:25;99496.22;;;13.54;83.09
49459;BME280;35354;51.296;16.924;2023-05-02T05:12:50;99513.88;;;13.64;83.41
49459;BME280;35354;51.296;16.924;2023-05-02T05:15:17;99515.66;;;13.64;83.89
49459;BME280;35354;51.296;16.924;2023-05-02T05:17:44;99518.19;;;13.65;84.42
49459;BME280;35354;51.296;16.924;2023-05-02T05:20:10;99520.81;;;13.65;84.39
49459;BME280;35354;51.296;16.924;2023-05-02T05:22:39;99497.81;;;13.56;84.14
49459;BME280;35354;51.296;16.924;2023-05-02T05:25:06;99535.56;;;13.81;83.77
49459;BME280;35354;51.296;16.924;2023-05-02T05:27:33;99530.44;;;13.79;83.82
49459;BME280;35354;51.296;16.924;2023-05-02T05:29:59;99543.06;;;13.87;83.46
49459;BME280;35354;51.296;16.924;2023-05-02T05:32:24;99515.19;;;13.71;83.71
49459;BME280;35354;51.296;16.924;2023-05-02T05:34:51;99514.06;;;13.76;83.82
49459;BME280;35354;51.296;16.924;2023-05-02T05:37:17;99540.69;;;13.96;83.37
49459;BME280;35354;51.296;16.924;2023-05-02T05:39:43;99540.13;;;14.06;83.38
49459;BME280;35354;51.296;16.924;2023-05-02T05:42:08;99541.44;;;14.13;83.05
49459;BME280;35354;51.296;16.924;2023-05-02T05:44:34;99543.28;;;14.25;82.80
49459;BME280;35354;51.296;16.924;2023-05-02T05:47:00;99524.09;;;14.25;82.21
49459;BME280;35354;51.296;16.924;2023-05-02T05:49:25;99560.97;;;14.63;81.87
49459;BME280;35354;51.296;16.924;2023-05-02T05:51:50;99561.78;;;14.90;80.98
49459;BME280;35354;51.296;16.924;2023-05-02T05:54:16;99560.78;;;15.18;79.99
49459;BME280;35354;51.296;16.924;2023-05-02T05:56:42;99569.22;;;15.49;79.10
49459;BME280;35354;51.296;16.924;2023-05-02T05:59:08;99575.00;;;15.67;77.72
49459;BME280;35354;51.296;16.924;2023-05-02T06:01:33;99584.03;;;15.88;76.70
49459;BME280;35354;51.296;16.924;2023-05-02T06:04:00;99566.69;;;15.99;76.12
49459;BME280;35354;51.296;16.924;2023-05-02T06:06:25;99569.09;;;16.14;75.84
49459;BME280;35354;51.296;16.924;2023-05-02T06:08:52;99578.50;;;16.30;75.25
49459;BME280;35354;51.296;16.924;2023-05-02T06:11:17;99574.16;;;16.41;74.67
49459;BME280;35354;51.296;16.924;2023-05-02T06:13:42;99596.25;;;16.76;74.07
49459;BME280;35354;51.296;16.924;2023-05-02T06:16:08;99593.59;;;17.00;72.84
49459;BME280;35354;51.296;16.924;2023-05-02T06:18:33;99593.69;;;17.22;71.93
49459;BME280;35354;51.296;16.924;2023-05-02T06:21:03;99602.13;;;17.50;71.22
49459;BME280;35354;51.296;16.924;2023-05-02T06:23:29;99597.47;;;17.64;70.67
49459;BME280;35354;51.296;16.924;2023-05-02T06:25:58;99585.19;;;17.76;69.93
49459;BME280;35354;51.296;16.924;2023-05-02T06:28:23;99566.53;;;18.02;68.87
49459;BME280;35354;51.296;16.924;2023-05-02T06:33:23;99606.44;;;19.59;65.17
49459;BME280;35354;51.296;16.924;2023-05-02T06:35:52;99580.44;;;19.85;63.90
49459;BME280;35354;51.296;16.924;2023-05-02T06:38:18;99592.25;;;20.22;62.46
49459;BME280;35354;51.296;16.924;2023-05-02T06:40:43;99604.81;;;20.70;61.97
49459;BME280;35354;51.296;16.924;2023-05-02T06:43:10;99579.16;;;20.89;60.33
49459;BME280;35354;51.296;16.924;2023-05-02T06:45:35;99613.81;;;21.83;58.94
49459;BME280;35354;51.296;16.924;2023-05-02T06:48:01;99620.72;;;23.04;55.90
49459;BME280;35354;51.296;16.924;2023-05-02T06:50:27;99606.78;;;24.67;53.06
49459;BME280;35354;51.296;16.924;2023-05-02T06:52:52;99627.44;;;26.82;48.94
49459;BME280;35354;51.296;16.924;2023-05-02T06:55:18;99599.09;;;27.94;45.56
49459;BME280;35354;51.296;16.924;2023-05-02T06:57:43;99620.91;;;29.08;44.17
49459;BME280;35354;51.296;16.924;2023-05-02T07:00:09;99627.03;;;30.07;42.32
49459;BME280;35354;51.296;16.924;2023-05-02T07:02:34;99624.59;;;30.67;41.05
49459;BME280;35354;51.296;16.924;2023-05-02T07:05:00;99629.97;;;30.61;40.55
49459;BME280;35354;51.296;16.924;2023-05-02T07:07:25;99634.13;;;29.87;41.23
49459;BME280;35354;51.296;16.924;2023-05-02T07:09:50;99636.13;;;29.07;41.72
49459;BME280;35354;51.296;16.924;2023-05-02T07:12:16;99638.22;;;28.10;42.92
49459;BME280;35354;51.296;16.924;2023-05-02T07:14:42;99645.91;;;26.92;44.79
49459;BME280;35354;51.296;16.924;2023-05-02T07:17:08;99638.00;;;25.64;46.71
49459;BME280;35354;51.296;16.924;2023-05-02T07:19:33;99631.09;;;24.72;48.00
49459;BME280;35354;51.296;16.924;2023-05-02T07:21:59;99636.09;;;23.98;49.31
49459;BME280;35354;51.296;16.924;2023-05-02T07:24:24;99647.19;;;23.50;51.23
49459;BME280;35354;51.296;16.924;2023-05-02T07:26:50;99650.53;;;23.34;51.59
49459;BME280;35354;51.296;16.924;2023-05-02T07:29:15;99646.94;;;23.35;51.13
49459;BME280;35354;51.296;16.924;2023-05-02T07:31:41;99633.41;;;23.28;51.10
49459;BME280;35354;51.296;16.924;2023-05-02T07:34:06;99647.69;;;23.27;51.34
49459;BME280;35354;51.296;16.924;2023-05-02T07:36:31;99664.00;;;23.32;51.64
49459;BME280;35354;51.296;16.924;2023-05-02T07:38:57;99655.22;;;23.14;51.89
49459;BME280;35354;51.296;16.924;2023-05-02T07:41:22;99611.94;;;22.58;52.06
49459;BME280;35354;51.296;16.924;2023-05-02T07:43:47;99630.34;;;22.42;52.55
49459;BME280;35354;51.296;16.924;2023-05-02T07:46:13;99664.09;;;22.50;52.55
49459;BME280;35354;51.296;16.924;2023-05-02T07:48:38;99683.72;;;22.39;52.91
49459;BME280;35354;51.296;16.924;2023-05-02T07:51:09;99637.25;;;21.78;53.67
49459;BME280;35354;51.296;16.924;2023-05-02T07:53:34;99643.00;;;21.64;53.89
49459;BME280;35354;51.296;16.924;2023-05-02T07:56:02;99653.06;;;21.60;54.36
49459;BME280;35354;51.296;16.924;2023-05-02T07:58:28;99651.66;;;21.56;54.44
49459;BME280;35354;51.296;16.924;2023-05-02T08:00:53;99671.34;;;21.63;54.27
49459;BME280;35354;51.296;16.924;2023-05-02T08:03:18;99680.25;;;21.53;54.55
49459;BME280;35354;51.296;16.924;2023-05-02T08:05:44;99697.28;;;21.50;54.79
49459;BME280;35354;51.296;16.924;2023-05-02T08:08:09;99699.22;;;21.29;55.58
49459;BME280;35354;51.296;16.924;2023-05-02T08:10:35;99660.81;;;20.94;56.05
49459;BME280;35354;51.296;16.924;2023-05-02T08:13:00;99683.72;;;20.95;56.30
49459;BME280;35354;51.296;16.924;2023-05-02T08:15:25;99689.13;;;20.93;56.55
49459;BME280;35354;51.296;16.924;2023-05-02T08:17:51;99684.38;;;20.87;56.36
49459;BME280;35354;51.296;16.924;2023-05-02T08:20:16;99693.84;;;20.80;57.21
49459;BME280;35354;51.296;16.924;2023-05-02T08:22:41;99683.06;;;20.62;57.30
49459;BME280;35354;51.296;16.924;2023-05-02T08:25:07;99691.44;;;20.67;56.75
49459;BME280;35354;51.296;16.924;2023-05-02T08:27:32;99703.75;;;20.78;55.94
49459;BME280;35354;51.296;16.924;2023-05-02T08:29:59;99674.56;;;20.59;55.64
49459;BME280;35354;51.296;16.924;2023-05-02T08:32:25;99704.00;;;20.85;56.25
49459;BME280;35354;51.296;16.924;2023-05-02T08:34:54;99706.84;;;21.03;56.73
49459;BME280;35354;51.296;16.924;2023-05-02T08:37:20;99707.69;;;21.03;56.29
49459;BME280;35354;51.296;16.924;2023-05-02T08:39:46;99712.00;;;21.04;56.88
49459;BME280;35354;51.296;16.924;2023-05-02T08:42:11;99720.38;;;21.00;56.29
49459;BME280;35354;51.296;16.924;2023-05-02T08:44:36;99688.53;;;20.71;56.66
49459;BME280;35354;51.296;16.924;2023-05-02T08:47:03;99704.00;;;20.75;56.69
49459;BME280;35354;51.296;16.924;2023-05-02T08:49:31;99691.00;;;20.62;56.23
49459;BME280;35354;51.296;16.924;2023-05-02T08:51:59;99715.84;;;20.81;56.55
49459;BME280;35354;51.296;16.924;2023-05-02T08:54:24;99713.50;;;20.87;56.79
49459;BME280;35354;51.296;16.924;2023-05-02T08:56:52;99726.06;;;20.95;56.24
49459;BME280;35354;51.296;16.924;2023-05-02T08:59:18;99718.66;;;20.89;56.39
49459;BME280;35354;51.296;16.924;2023-05-02T09:01:44;99721.03;;;21.02;56.62
49459;BME280;35354;51.296;16.924;2023-05-02T09:04:13;99728.88;;;21.03;56.35
49459;BME280;35354;51.296;16.924;2023-05-02T09:06:39;99696.19;;;20.74;56.35
49459;BME280;35354;51.296;16.924;2023-05-02T09:09:04;99728.28;;;20.90;56.40
49459;BME280;35354;51.296;16.924;2023-05-02T09:11:29;99736.50;;;20.97;56.18
49459;BME280;35354;51.296;16.924;2023-05-02T09:13:55;99731.63;;;20.92;56.22
49459;BME280;35354;51.296;16.924;2023-05-02T09:16:24;99730.22;;;20.88;55.96
49459;BME280;35354;51.296;16.924;2023-05-02T09:18:55;99707.47;;;20.76;56.27
49459;BME280;35354;51.296;16.924;2023-05-02T09:21:26;99711.38;;;20.72;55.78
49459;BME280;35354;51.296;16.924;2023-05-02T09:23:58;99742.19;;;20.82;56.19
49459;BME280;35354;51.296;16.924;2023-05-02T09:26:26;99756.56;;;20.89;55.73
49459;BME280;35354;51.296;16.924;2023-05-02T09:28:54;99732.03;;;20.78;56.23
49459;BME280;35354;51.296;16.924;2023-05-02T09:33:51;99764.53;;;20.99;56.62
49459;BME280;35354;51.296;16.924;2023-05-02T09:36:19;99760.34;;;20.97;56.14
49459;BME280;35354;51.296;16.924;2023-05-02T09:38:46;99685.81;;;20.51;55.49
49459;BME280;35354;51.296;16.924;2023-05-02T09:41:12;99777.63;;;21.01;55.02
49459;BME280;35354;51.296;16.924;2023-05-02T09:43:39;99756.56;;;20.89;54.95
49459;BME280;35354;51.296;16.924;2023-05-02T09:46:09;99783.66;;;21.03;55.72
49459;BME280;35354;51.296;16.924;2023-05-02T09:48:54;99774.31;;;20.99;55.40
49459;BME280;35354;51.296;16.924;2023-05-02T09:51:21;99786.31;;;21.03;55.53
49459;BME280;35354;51.296;16.924;2023-05-02T09:53:48;99774.31;;;20.99;55.38
49459;BME280;35354;51.296;16.924;2023-05-02T09:56:13;99752.53;;;20.95;55.42
49459;BME280;35354;51.296;16.924;2023-05-02T09:58:39;99781.44;;;21.17;55.11
49459;BME280;35354;51.296;16.924;2023-05-02T10:01:05;99795.41;;;21.29;54.90
49459;BME280;35354;51.296;16.924;2023-05-02T10:03:35;99751.88;;;21.12;55.05
49459;BME280;35354;51.296;16.924;2023-05-02T10:06:03;99792.25;;;21.35;54.88
49459;BME280;35354;51.296;16.924;2023-05-02T10:08:32;99793.94;;;21.46;55.10
49459;BME280;35354;51.296;16.924;2023-05-02T10:10:59;99780.81;;;21.45;55.04
49459;BME280;35354;51.296;16.924;2023-05-02T10:13:26;99789.47;;;21.47;55.22
49459;BME280;35354;51.296;16.924;2023-05-02T10:16:03;99809.59;;;21.59;53.96
49459;BME280;35354;51.296;16.924;2023-05-02T10:18:51;99799.41;;;21.54;52.88
49459;BME280;35354;51.296;16.924;2023-05-02T10:21:25;99796.88;;;21.53;51.48
49459;BME280;35354;51.296;16.924;2023-05-02T10:23:51;99799.66;;;21.51;51.11
49459;BME280;35354;51.296;16.924;2023-05-02T10:26:17;99771.34;;;21.52;51.83
49459;BME280;35354;51.296;16.924;2023-05-02T10:28:45;99800.25;;;21.84;52.40
49459;BME280;35354;51.296;16.924;2023-05-02T10:31:12;99809.44;;;21.89;50.56
49459;BME280;35354;51.296;16.924;2023-05-02T10:33:38;99802.47;;;21.88;49.74
49459;BME280;35354;51.296;16.924;2023-05-02T10:36:06;99807.78;;;21.88;49.03
49459;BME280;35354;51.296;16.924;2023-05-02T10:38:32;99803.56;;;21.86;48.72
49459;BME280;35354;51.296;16.924;2023-05-02T10:41:02;99809.84;;;21.95;49.08
49459;BME280;35354;51.296;16.924;2023-05-02T10:43:31;99802.59;;;21.97;49.43
49459;BME280;35354;51.296;16.924;2023-05-02T10:45:58;99803.72;;;22.04;49.55
49459;BME280;35354;51.296;16.924;2023-05-02T10:48:26;99813.38;;;22.14;49.71
49459;BME280;35354;51.296;16.924;2023-05-02T10:50:53;99761.56;;;21.91;49.37
49459;BME280;35354;51.296;16.924;2023-05-02T10:53:33;99815.31;;;22.22;49.59
49459;BME280;35354;51.296;16.924;2023-05-02T10:56:20;99755.56;;;21.89;50.02
49459;BME280;35354;51.296;16.924;2023-05-02T10:58:50;99813.63;;;22.31;49.82
49459;BME280;35354;51.296;16.924;2023-05-02T11:01:34;99793.53;;;22.19;50.44
49459;BME280;35354;51.296;16.924;2023-05-02T11:04:06;99818.78;;;22.42;49.87
49459;BME280;35354;51.296;16.924;2023-05-02T11:06:37;99804.13;;;22.38;50.20
49459;BME280;35354;51.296;16.924;2023-05-02T11:11:50;99817.38;;;22.38;49.98
49459;BME280;35354;51.296;16.924;2023-05-02T11:19:23;99799.13;;;22.15;50.10
49459;BME280;35354;51.296;16.924;2023-05-02T11:21:49;99812.91;;;22.29;50.04
49459;BME280;35354;51.296;16.924;2023-05-02T11:24:37;99824.09;;;22.32;50.32
49459;BME280;35354;51.296;16.924;2023-05-02T11:29:55;99798.69;;;22.20;50.56
49459;BME280;35354;51.296;16.924;2023-05-02T11:32:20;99804.16;;;22.19;50.06
49459;BME280;35354;51.296;16.924;2023-05-02T11:34:47;99805.53;;;22.23;50.14
49459;BME280;35354;51.296;16.924;2023-05-02T11:37:18;99813.34;;;22.24;50.30
49459;BME280;35354;51.296;16.924;2023-05-02T11:39:44;99812.66;;;22.22;50.23
49459;BME280;35354;51.296;16.924;2023-05-02T11:42:28;99831.91;;;22.24;51.00
49459;BME280;35354;51.296;16.924;2023-05-02T11:44:58;99822.72;;;22.19;50.95
49459;BME280;35354;51.296;16.924;2023-05-02T11:47:25;99829.84;;;22.08;51.23
49459;BME280;35354;51.296;16.924;2023-05-02T11:49:53;99833.91;;;22.12;51.23
49459;BME280;35354;51.296;16.924;2023-05-02T11:52:19;99827.47;;;21.96;51.26
49459;BME280;35354;51.296;16.924;2023-05-02T11:54:44;99797.16;;;21.69;51.53
49459;BME280;35354;51.296;16.924;2023-05-02T11:57:10;99840.56;;;21.68;51.66
49459;BME280;35354;51.296;16.924;2023-05-02T12:00:08;99844.81;;;21.40;51.80
49459;BME280;35354;51.296;16.924;2023-05-02T12:02:38;99871.75;;;21.14;52.19
49459;BME280;35354;51.296;16.924;2023-05-02T12:05:05;99872.56;;;20.75;53.96
49459;BME280;35354;51.296;16.924;2023-05-02T12:07:38;99852.53;;;20.19;56.31
49459;BME280;35354;51.296;16.924;2023-05-02T12:10:08;99875.50;;;19.86;61.18
49459;BME280;35354;51.296;16.924;2023-05-02T12:12:34;99913.41;;;19.64;64.40
49459;BME280;35354;51.296;16.924;2023-05-02T12:15:03;99904.41;;;19.22;64.85
49459;BME280;35354;51.296;16.924;2023-05-02T12:17:30;99901.03;;;18.98;66.46
49459;BME280;35354;51.296;16.924;2023-05-02T12:19:56;99897.03;;;18.69;67.59
49459;BME280;35354;51.296;16.924;2023-05-02T12:22:22;99897.34;;;18.65;70.20
49459;BME280;35354;51.296;16.924;2023-05-02T12:24:48;99903.38;;;18.32;72.17
49459;BME280;35354;51.296;16.924;2023-05-02T12:27:15;99901.56;;;17.97;73.73
49459;BME280;35354;51.296;16.924;2023-05-02T12:29:44;99851.63;;;17.59;75.24
49459;BME280;35354;51.296;16.924;2023-05-02T12:32:10;99879.66;;;17.60;75.66
49459;BME280;35354;51.296;16.924;2023-05-02T12:34:37;99895.78;;;17.55;75.64
49459;BME280;35354;51.296;16.924;2023-05-02T12:37:03;99892.53;;;17.52;76.40
49459;BME280;35354;51.296;16.924;2023-05-02T12:39:41;99899.50;;;17.40;77.37
49459;BME280;35354;51.296;16.924;2023-05-02T12:42:15;99901.53;;;17.36;77.91
49459;BME280;35354;51.296;16.924;2023-05-02T12:44:42;99894.56;;;17.23;77.59
49459;BME280;35354;51.296;16.924;2023-05-02T12:47:15;99903.84;;;17.28;79.09
49459;BME280;35354;51.296;16.924;2023-05-02T12:49:53;99889.00;;;17.14;78.78
49459;BME280;35354;51.296;16.924;2023-05-02T12:52:28;99875.00;;;17.14;79.91
49459;BME280;35354;51.296;16.924;2023-05-02T12:55:20;99892.38;;;17.29;79.57
49459;BME280;35354;51.296;16.924;2023-05-02T12:57:48;99875.47;;;17.08;76.37
49459;BME280;35354;51.296;16.924;2023-05-02T13:00:17;99895.13;;;17.28;77.18
49459;BME280;35354;51.296;16.924;2023-05-02T13:02:42;99870.56;;;17.27;76.71
49459;BME280;35354;51.296;16.924;2023-05-02T13:05:14;99910.41;;;17.59;76.24
49459;BME280;35354;51.296;16.924;2023-05-02T13:07:40;99888.50;;;17.59;75.13
49459;BME280;35354;51.296;16.924;2023-05-02T13:10:05;99909.84;;;17.80;75.84
49459;BME280;35354;51.296;16.924;2023-05-02T13:12:31;99876.97;;;17.73;75.99
49459;BME280;35354;51.296;16.924;2023-05-02T13:14:56;99901.34;;;18.00;77.14
49459;BME280;35354;51.296;16.924;2023-05-02T13:17:22;99892.63;;;18.11;76.83
49459;BME280;35354;51.296;16.924;2023-05-02T13:19:47;99901.91;;;17.92;76.10
49459;BME280;35354;51.296;16.924;2023-05-02T13:22:12;99888.16;;;17.63;75.35
49459;BME280;35354;51.296;16.924;2023-05-02T13:24:37;99892.47;;;17.64;75.10
49459;BME280;35354;51.296;16.924;2023-05-02T13:27:03;99902.94;;;17.90;74.67
49459;BME280;35354;51.296;16.924;2023-05-02T13:29:29;99902.63;;;18.18;75.02
49459;BME280;35354;51.296;16.924;2023-05-02T13:31:55;99904.59;;;18.39;73.36
49459;BME280;35354;51.296;16.924;2023-05-02T13:34:21;99909.31;;;18.58;73.62